sensor_id;sensor_type;location;lat;lon;timestamp;pressure;altitude;pressure_sealevel;temperature;humidity
53116;BME280;39010;48.088;7.954;2022-11-15T00:01:42;98339.72;;;7.94;100.00
53116;BME280;39010;48.088;7.954;2022-11-15T00:04:26;98335.03;;;7.96;100.00
53116;BME280;39010;48.088;7.954;2022-11-15T00:07:11;98331.34;;;8.05;100.00
53116;BME280;39010;48.088;7.954;2022-11-15T00:10:17;98329.13;;;8.09;100.00
53116;BME280;39010;48.088;7.954;2022-11-15T00:13:12;98331.81;;;8.09;100.00
53116;BME280;39010;48.088;7.954;2022-11-15T00:15:59;98327.44;;;8.16;100.00
53116;BME280;39010;48.088;7.954;2022-11-15T00:18:45;98325.06;;;8.21;100.00
53116;BME280;39010;48.088;7.954;2022-11-15T00:21:35;98320.38;;;8.23;100.00
53116;BME280;39010;48.088;7.954;2022-11-15T00:24:20;98318.56;;;8.24;100.00
53116;BME280;39010;48.088;7.954;2022-11-15T00:27:08;98317.34;;;8.26;100.00
53116;BME280;39010;48.088;7.954;2022-11-15T00:29:53;98316.69;;;8.24;100.00
53116;BME280;39010;48.088;7.954;2022-11-15T00:32:38;98310.03;;;8.20;100.00
53116;BME280;39010;48.088;7.954;2022-11-15T00:35:23;98304.69;;;8.20;100.00
53116;BME280;39010;48.088;7.954;2022-11-15T00:38:08;98298.31;;;8.21;100.00
53116;BME280;39010;48.088;7.954;2022-11-15T00:40:54;98299.59;;;8.34;100.00
53116;BME280;39010;48.088;7.954;2022-11-15T00:43:39;98292.41;;;8.34;100.00
53116;BME280;39010;48.088;7.954;2022-11-15T00:46:25;98301.25;;;8.35;100.00
53116;BME280;39010;48.088;7.954;2022-11-15T00:49:10;98293.94;;;8.29;100.00
53116;BME280;39010;48.088;7.954;2022-11-15T00:51:55;98296.75;;;8.35;100.00
53116;BME280;39010;48.088;7.954;2022-11-15T00:54:41;98293.28;;;8.26;100.00
53116;BME280;39010;48.088;7.954;2022-11-15T00:57:25;98289.97;;;8.24;100.00
53116;BME280;39010;48.088;7.954;2022-11-15T01:00:11;98291.66;;;8.17;100.00
53116;BME280;39010;48.088;7.954;2022-11-15T01:02:56;98286.00;;;8.12;100.00
53116;BME280;39010;48.088;7.954;2022-11-15T01:05:41;98281.84;;;8.09;100.00
53116;BME280;39010;48.088;7.954;2022-11-15T01:08:27;98279.97;;;8.18;100.00
53116;BME280;39010;48.088;7.954;2022-11-15T01:11:12;98293.06;;;8.05;100.00
53116;BME280;39010;48.088;7.954;2022-11-15T01:13:57;98295.28;;;7.93;100.00
53116;BME280;39010;48.088;7.954;2022-11-15T01:16:42;98294.81;;;7.89;100.00
53116;BME280;39010;48.088;7.954;2022-11-15T01:19:27;98291.97;;;7.91;100.00
53116;BME280;39010;48.088;7.954;2022-11-15T01:22:12;98282.78;;;7.93;100.00
53116;BME280;39010;48.088;7.954;2022-11-15T01:24:57;98277.25;;;7.95;100.00
53116;BME280;39010;48.088;7.954;2022-11-15T01:27:43;98280.09;;;7.93;100.00
53116;BME280;39010;48.088;7.954;2022-11-15T01:30:28;98281.91;;;8.01;100.00
53116;BME280;39010;48.088;7.954;2022-11-15T01:33:13;98288.06;;;8.02;100.00
53116;BME280;39010;48.088;7.954;2022-11-15T01:35:58;98277.44;;;7.93;100.00
53116;BME280;39010;48.088;7.954;2022-11-15T01:38:43;98289.59;;;7.96;100.00
53116;BME280;39010;48.088;7.954;2022-11-15T01:41:33;98292.81;;;7.91;100.00
53116;BME280;39010;48.088;7.954;2022-11-15T01:47:22;98280.28;;;7.92;100.00
53116;BME280;39010;48.088;7.954;2022-11-15T01:50:12;98275.47;;;7.87;100.00
53116;BME280;39010;48.088;7.954;2022-11-15T01:52:57;98272.13;;;7.85;100.00
53116;BME280;39010;48.088;7.954;2022-11-15T01:55:43;98264.75;;;7.87;100.00
53116;BME280;39010;48.088;7.954;2022-11-15T01:58:28;98257.34;;;7.97;100.00
53116;BME280;39010;48.088;7.954;2022-11-15T02:01:14;98258.97;;;8.07;100.00
53116;BME280;39010;48.088;7.954;2022-11-15T02:04:03;98254.28;;;8.09;100.00
53116;BME280;39010;48.088;7.954;2022-11-15T02:06:51;98252.81;;;8.06;100.00
53116;BME280;39010;48.088;7.954;2022-11-15T02:09:37;98245.09;;;8.11;100.00
53116;BME280;39010;48.088;7.954;2022-11-15T02:12:23;98242.09;;;8.06;100.00
53116;BME280;39010;48.088;7.954;2022-11-15T02:15:08;98237.56;;;8.07;100.00
53116;BME280;39010;48.088;7.954;2022-11-15T02:21:42;98232.38;;;8.14;100.00
53116;BME280;39010;48.088;7.954;2022-11-15T02:28:16;98226.22;;;8.05;100.00
53116;BME280;39010;48.088;7.954;2022-11-15T02:31:14;98229.91;;;8.04;100.00
53116;BME280;39010;48.088;7.954;2022-11-15T02:37:03;98217.03;;;8.07;100.00
53116;BME280;39010;48.088;7.954;2022-11-15T02:40:26;98221.19;;;8.10;100.00
53116;BME280;39010;48.088;7.954;2022-11-15T02:43:22;98213.22;;;8.02;100.00
53116;BME280;39010;48.088;7.954;2022-11-15T02:49:51;98200.34;;;8.05;100.00
53116;BME280;39010;48.088;7.954;2022-11-15T02:52:38;98198.69;;;8.04;100.00
53116;BME280;39010;48.088;7.954;2022-11-15T02:55:29;98199.34;;;8.06;100.00
53116;BME280;39010;48.088;7.954;2022-11-15T03:02:00;98198.03;;;8.02;100.00
53116;BME280;39010;48.088;7.954;2022-11-15T03:08:17;98193.34;;;8.04;100.00
53116;BME280;39010;48.088;7.954;2022-11-15T03:11:09;98196.25;;;8.18;100.00
53116;BME280;39010;48.088;7.954;2022-11-15T03:14:00;98195.06;;;8.20;100.00
53116;BME280;39010;48.088;7.954;2022-11-15T03:17:16;98194.34;;;8.26;100.00
53116;BME280;39010;48.088;7.954;2022-11-15T03:20:06;98191.00;;;8.24;100.00
53116;BME280;39010;48.088;7.954;2022-11-15T03:22:53;98200.53;;;8.27;100.00
53116;BME280;39010;48.088;7.954;2022-11-15T03:25:48;98198.31;;;8.31;100.00
53116;BME280;39010;48.088;7.954;2022-11-15T03:28:51;98186.16;;;8.28;100.00
53116;BME280;39010;48.088;7.954;2022-11-15T03:31:40;98201.84;;;8.31;100.00
53116;BME280;39010;48.088;7.954;2022-11-15T03:37:43;98198.03;;;8.25;100.00
53116;BME280;39010;48.088;7.954;2022-11-15T03:40:35;98193.69;;;8.24;100.00
53116;BME280;39010;48.088;7.954;2022-11-15T03:43:59;98200.53;;;8.27;100.00
53116;BME280;39010;48.088;7.954;2022-11-15T03:47:02;98196.34;;;8.24;100.00
53116;BME280;39010;48.088;7.954;2022-11-15T03:49:52;98181.16;;;8.25;100.00
53116;BME280;39010;48.088;7.954;2022-11-15T03:52:41;98184.19;;;8.22;100.00
53116;BME280;39010;48.088;7.954;2022-11-15T03:55:26;98175.31;;;8.21;100.00
53116;BME280;39010;48.088;7.954;2022-11-15T03:58:11;98172.84;;;8.20;100.00
53116;BME280;39010;48.088;7.954;2022-11-15T04:00:57;98171.63;;;8.22;100.00
53116;BME280;39010;48.088;7.954;2022-11-15T04:03:42;98170.09;;;8.28;100.00
53116;BME280;39010;48.088;7.954;2022-11-15T04:06:27;98170.28;;;8.26;100.00
53116;BME280;39010;48.088;7.954;2022-11-15T04:09:12;98165.94;;;8.25;100.00
53116;BME280;39010;48.088;7.954;2022-11-15T04:11:58;98176.75;;;8.32;100.00
53116;BME280;39010;48.088;7.954;2022-11-15T04:14:43;98176.28;;;8.29;100.00
53116;BME280;39010;48.088;7.954;2022-11-15T04:17:50;98177.56;;;8.33;100.00
53116;BME280;39010;48.088;7.954;2022-11-15T04:20:35;98172.16;;;8.41;100.00
53116;BME280;39010;48.088;7.954;2022-11-15T04:23:39;98166.53;;;8.36;100.00
53116;BME280;39010;48.088;7.954;2022-11-15T04:26:36;98180.91;;;8.35;100.00
53116;BME280;39010;48.088;7.954;2022-11-15T04:29:21;98182.34;;;8.46;100.00
53116;BME280;39010;48.088;7.954;2022-11-15T04:32:19;98185.25;;;8.36;100.00
53116;BME280;39010;48.088;7.954;2022-11-15T04:35:04;98188.34;;;8.48;100.00
53116;BME280;39010;48.088;7.954;2022-11-15T04:37:49;98182.03;;;8.49;100.00
53116;BME280;39010;48.088;7.954;2022-11-15T04:40:36;98180.00;;;8.51;100.00
53116;BME280;39010;48.088;7.954;2022-11-15T04:43:21;98180.81;;;8.51;100.00
53116;BME280;39010;48.088;7.954;2022-11-15T04:46:07;98179.03;;;8.44;100.00
53116;BME280;39010;48.088;7.954;2022-11-15T04:48:53;98164.13;;;8.41;100.00
53116;BME280;39010;48.088;7.954;2022-11-15T04:51:43;98169.84;;;8.38;100.00
53116;BME280;39010;48.088;7.954;2022-11-15T04:54:28;98170.44;;;8.48;100.00
53116;BME280;39010;48.088;7.954;2022-11-15T04:57:14;98172.47;;;8.46;100.00
53116;BME280;39010;48.088;7.954;2022-11-15T04:59:59;98174.47;;;8.44;100.00
53116;BME280;39010;48.088;7.954;2022-11-15T05:02:44;98171.88;;;8.36;100.00
53116;BME280;39010;48.088;7.954;2022-11-15T05:05:48;98173.25;;;8.32;100.00
53116;BME280;39010;48.088;7.954;2022-11-15T05:08:33;98169.75;;;8.31;100.00
53116;BME280;39010;48.088;7.954;2022-11-15T05:11:19;98162.75;;;8.30;100.00
53116;BME280;39010;48.088;7.954;2022-11-15T05:14:05;98158.09;;;8.24;100.00
53116;BME280;39010;48.088;7.954;2022-11-15T05:16:50;98166.41;;;8.29;100.00
53116;BME280;39010;48.088;7.954;2022-11-15T05:19:36;98167.59;;;8.26;100.00
53116;BME280;39010;48.088;7.954;2022-11-15T05:22:21;98155.44;;;8.24;100.00
53116;BME280;39010;48.088;7.954;2022-11-15T05:25:07;98161.31;;;8.19;100.00
53116;BME280;39010;48.088;7.954;2022-11-15T05:27:52;98157.75;;;8.27;100.00
53116;BME280;39010;48.088;7.954;2022-11-15T05:30:37;98154.28;;;8.18;100.00
53116;BME280;39010;48.088;7.954;2022-11-15T05:33:23;98157.81;;;8.19;100.00
53116;BME280;39010;48.088;7.954;2022-11-15T05:36:36;98162.97;;;8.20;100.00
53116;BME280;39010;48.088;7.954;2022-11-15T05:39:23;98148.47;;;8.15;100.00
53116;BME280;39010;48.088;7.954;2022-11-15T05:42:10;98148.28;;;8.16;100.00
53116;BME280;39010;48.088;7.954;2022-11-15T05:44:57;98144.78;;;8.16;100.00
53116;BME280;39010;48.088;7.954;2022-11-15T05:47:43;98138.97;;;8.12;100.00
53116;BME280;39010;48.088;7.954;2022-11-15T05:50:29;98142.00;;;8.09;100.00
53116;BME280;39010;48.088;7.954;2022-11-15T05:53:16;98140.63;;;8.13;100.00
53116;BME280;39010;48.088;7.954;2022-11-15T05:56:04;98143.66;;;8.10;100.00
53116;BME280;39010;48.088;7.954;2022-11-15T05:58:53;98141.81;;;8.10;100.00
53116;BME280;39010;48.088;7.954;2022-11-15T06:01:43;98140.03;;;8.03;100.00
53116;BME280;39010;48.088;7.954;2022-11-15T06:04:28;98134.69;;;8.03;100.00
53116;BME280;39010;48.088;7.954;2022-11-15T06:07:13;98135.03;;;8.00;100.00
53116;BME280;39010;48.088;7.954;2022-11-15T06:09:59;98143.06;;;8.00;100.00
53116;BME280;39010;48.088;7.954;2022-11-15T06:12:44;98144.72;;;8.01;100.00
53116;BME280;39010;48.088;7.954;2022-11-15T06:15:33;98146.09;;;7.96;100.00
53116;BME280;39010;48.088;7.954;2022-11-15T06:18:19;98138.63;;;7.92;100.00
53116;BME280;39010;48.088;7.954;2022-11-15T06:21:04;98137.44;;;7.94;100.00
53116;BME280;39010;48.088;7.954;2022-11-15T06:23:49;98135.59;;;7.95;100.00
53116;BME280;39010;48.088;7.954;2022-11-15T06:26:35;98131.06;;;7.95;100.00
53116;BME280;39010;48.088;7.954;2022-11-15T06:29:20;98130.91;;;7.97;100.00
53116;BME280;39010;48.088;7.954;2022-11-15T06:32:05;98133.56;;;7.97;100.00
53116;BME280;39010;48.088;7.954;2022-11-15T06:34:51;98117.06;;;7.93;100.00
53116;BME280;39010;48.088;7.954;2022-11-15T06:37:36;98120.38;;;7.95;100.00
53116;BME280;39010;48.088;7.954;2022-11-15T06:40:21;98123.53;;;7.99;100.00
53116;BME280;39010;48.088;7.954;2022-11-15T06:43:06;98123.22;;;7.94;100.00
53116;BME280;39010;48.088;7.954;2022-11-15T06:45:52;98126.75;;;7.94;100.00
53116;BME280;39010;48.088;7.954;2022-11-15T06:48:37;98130.91;;;7.97;100.00
53116;BME280;39010;48.088;7.954;2022-11-15T06:51:22;98127.66;;;8.02;100.00
53116;BME280;39010;48.088;7.954;2022-11-15T06:54:07;98131.19;;;8.02;100.00
53116;BME280;39010;48.088;7.954;2022-11-15T06:56:52;98126.59;;;8.11;100.00
53116;BME280;39010;48.088;7.954;2022-11-15T06:59:37;98126.59;;;8.11;100.00
53116;BME280;39010;48.088;7.954;2022-11-15T07:02:24;98125.78;;;8.10;100.00
53116;BME280;39010;48.088;7.954;2022-11-15T07:05:10;98128.91;;;8.14;100.00
53116;BME280;39010;48.088;7.954;2022-11-15T07:07:56;98130.59;;;8.15;100.00
53116;BME280;39010;48.088;7.954;2022-11-15T07:10:42;98124.78;;;8.11;100.00
53116;BME280;39010;48.088;7.954;2022-11-15T07:13:29;98125.06;;;8.17;100.00
53116;BME280;39010;48.088;7.954;2022-11-15T07:16:15;98119.53;;;8.18;100.00
53116;BME280;39010;48.088;7.954;2022-11-15T07:19:00;98122.19;;;8.18;100.00
53116;BME280;39010;48.088;7.954;2022-11-15T07:21:46;98123.50;;;8.22;100.00
53116;BME280;39010;48.088;7.954;2022-11-15T07:24:32;98126.84;;;8.24;100.00
53116;BME280;39010;48.088;7.954;2022-11-15T07:27:17;98134.44;;;8.36;100.00
53116;BME280;39010;48.088;7.954;2022-11-15T07:30:03;98127.41;;;8.35;100.00
53116;BME280;39010;48.088;7.954;2022-11-15T07:32:55;98123.00;;;8.42;100.00
53116;BME280;39010;48.088;7.954;2022-11-15T07:35:40;98124.88;;;8.42;100.00
53116;BME280;39010;48.088;7.954;2022-11-15T07:38:27;98124.16;;;8.48;100.00
53116;BME280;39010;48.088;7.954;2022-11-15T07:41:14;98122.66;;;8.45;100.00
53116;BME280;39010;48.088;7.954;2022-11-15T07:44:00;98128.66;;;8.47;100.00
53116;BME280;39010;48.088;7.954;2022-11-15T07:46:46;98124.31;;;8.46;100.00
53116;BME280;39010;48.088;7.954;2022-11-15T07:49:31;98115.13;;;8.49;100.00
53116;BME280;39010;48.088;7.954;2022-11-15T07:52:17;98120.78;;;8.54;100.00
53116;BME280;39010;48.088;7.954;2022-11-15T07:55:03;98111.25;;;8.51;100.00
53116;BME280;39010;48.088;7.954;2022-11-15T07:57:51;98120.56;;;8.55;100.00
53116;BME280;39010;48.088;7.954;2022-11-15T08:00:38;98120.88;;;8.61;100.00
53116;BME280;39010;48.088;7.954;2022-11-15T08:03:24;98120.56;;;8.55;100.00
53116;BME280;39010;48.088;7.954;2022-11-15T08:06:10;98118.47;;;8.66;100.00
53116;BME280;39010;48.088;7.954;2022-11-15T08:08:57;98119.41;;;8.73;100.00
53116;BME280;39010;48.088;7.954;2022-11-15T08:11:44;98110.00;;;8.77;100.00
53116;BME280;39010;48.088;7.954;2022-11-15T08:14:29;98104.28;;;8.80;100.00
53116;BME280;39010;48.088;7.954;2022-11-15T08:17:14;98105.28;;;8.79;100.00
53116;BME280;39010;48.088;7.954;2022-11-15T08:20:01;98103.72;;;8.85;100.00
53116;BME280;39010;48.088;7.954;2022-11-15T08:22:47;98101.31;;;8.90;100.00
53116;BME280;39010;48.088;7.954;2022-11-15T08:25:34;98108.53;;;8.90;100.00
53116;BME280;39010;48.088;7.954;2022-11-15T08:28:19;98092.75;;;8.95;100.00
53116;BME280;39010;48.088;7.954;2022-11-15T08:31:06;98102.25;;;8.97;100.00
53116;BME280;39010;48.088;7.954;2022-11-15T08:33:51;98100.41;;;8.98;100.00
53116;BME280;39010;48.088;7.954;2022-11-15T08:36:36;98103.53;;;9.02;100.00
53116;BME280;39010;48.088;7.954;2022-11-15T08:39:29;98103.81;;;9.07;100.00
53116;BME280;39010;48.088;7.954;2022-11-15T08:42:14;98098.72;;;9.12;100.00
53116;BME280;39010;48.088;7.954;2022-11-15T08:45:04;98081.25;;;9.16;100.00
53116;BME280;39010;48.088;7.954;2022-11-15T08:47:53;98099.47;;;9.21;100.00
53116;BME280;39010;48.088;7.954;2022-11-15T08:50:41;98090.03;;;9.25;100.00
53116;BME280;39010;48.088;7.954;2022-11-15T08:53:29;98087.91;;;9.35;100.00
53116;BME280;39010;48.088;7.954;2022-11-15T08:56:19;98086.63;;;9.31;100.00
53116;BME280;39010;48.088;7.954;2022-11-15T08:59:04;98088.06;;;9.34;100.00
53116;BME280;39010;48.088;7.954;2022-11-15T09:01:50;98079.38;;;9.47;100.00
53116;BME280;39010;48.088;7.954;2022-11-15T09:04:36;98076.44;;;9.41;100.00
53116;BME280;39010;48.088;7.954;2022-11-15T09:07:21;98083.19;;;9.37;100.00
53116;BME280;39010;48.088;7.954;2022-11-15T09:10:07;98077.81;;;9.37;100.00
53116;BME280;39010;48.088;7.954;2022-11-15T09:12:53;98091.50;;;9.42;100.00
53116;BME280;39010;48.088;7.954;2022-11-15T09:15:39;98080.41;;;9.46;100.00
53116;BME280;39010;48.088;7.954;2022-11-15T09:18:24;98081.31;;;9.53;100.00
53116;BME280;39010;48.088;7.954;2022-11-15T09:21:10;98086.03;;;9.51;100.00
53116;BME280;39010;48.088;7.954;2022-11-15T09:23:55;98093.22;;;9.50;100.00
53116;BME280;39010;48.088;7.954;2022-11-15T09:26:41;98103.94;;;9.50;100.00
53116;BME280;39010;48.088;7.954;2022-11-15T09:29:26;98111.69;;;9.60;100.00
53116;BME280;39010;48.088;7.954;2022-11-15T09:32:11;98109.00;;;9.60;100.00
53116;BME280;39010;48.088;7.954;2022-11-15T09:34:57;98111.94;;;9.65;100.00
53116;BME280;39010;48.088;7.954;2022-11-15T09:37:43;98104.78;;;9.72;100.00
53116;BME280;39010;48.088;7.954;2022-11-15T09:40:30;98106.72;;;9.79;100.00
53116;BME280;39010;48.088;7.954;2022-11-15T09:46:48;98104.50;;;9.82;100.00
53116;BME280;39010;48.088;7.954;2022-11-15T09:49:40;98099.31;;;9.81;100.00
53116;BME280;39010;48.088;7.954;2022-11-15T09:52:22;98093.56;;;9.84;100.00
53116;BME280;39010;48.088;7.954;2022-11-15T09:54:50;98089.69;;;9.86;100.00
53116;BME280;39010;48.088;7.954;2022-11-15T10:03:08;98085.66;;;9.97;100.00
53116;BME280;39010;48.088;7.954;2022-11-15T10:05:40;98084.44;;;10.00;100.00
53116;BME280;39010;48.088;7.954;2022-11-15T10:11:05;98068.66;;;10.12;100.00
53116;BME280;39010;48.088;7.954;2022-11-15T10:13:56;98065.41;;;10.16;100.00
53116;BME280;39010;48.088;7.954;2022-11-15T10:22:16;98054.19;;;10.35;100.00
53116;BME280;39010;48.088;7.954;2022-11-15T10:24:45;98052.78;;;10.39;100.00
53116;BME280;39010;48.088;7.954;2022-11-15T10:27:15;98045.00;;;10.44;100.00
53116;BME280;39010;48.088;7.954;2022-11-15T10:29:50;98036.81;;;10.52;100.00
53116;BME280;39010;48.088;7.954;2022-11-15T10:32:18;98032.31;;;10.59;100.00
53116;BME280;39010;48.088;7.954;2022-11-15T10:34:47;98019.75;;;10.67;100.00
53116;BME280;39010;48.088;7.954;2022-11-15T10:37:14;98023.00;;;10.62;100.00
53116;BME280;39010;48.088;7.954;2022-11-15T10:39:41;98016.66;;;10.70;100.00
53116;BME280;39010;48.088;7.954;2022-11-15T10:42:26;98013.63;;;10.80;100.00
53116;BME280;39010;48.088;7.954;2022-11-15T10:44:54;98015.91;;;10.83;100.00
53116;BME280;39010;48.088;7.954;2022-11-15T10:47:23;98001.66;;;10.82;100.00
53116;BME280;39010;48.088;7.954;2022-11-15T10:49:54;97990.34;;;10.94;100.00
53116;BME280;39010;48.088;7.954;2022-11-15T10:52:21;97995.50;;;10.88;100.00
53116;BME280;39010;48.088;7.954;2022-11-15T10:57:29;97977.94;;;10.93;100.00
53116;BME280;39010;48.088;7.954;2022-11-15T11:05:37;97976.13;;;11.00;100.00
53116;BME280;39010;48.088;7.954;2022-11-15T11:10:37;97969.50;;;11.02;100.00
53116;BME280;39010;48.088;7.954;2022-11-15T11:13:30;97968.06;;;11.07;100.00
53116;BME280;39010;48.088;7.954;2022-11-15T11:27:21;97939.59;;;11.19;100.00
53116;BME280;39010;48.088;7.954;2022-11-15T11:40:57;97918.13;;;11.26;100.00
53116;BME280;39010;48.088;7.954;2022-11-15T11:43:37;97914.22;;;11.35;100.00
53116;BME280;39010;48.088;7.954;2022-11-15T11:48:49;97907.59;;;11.38;100.00
53116;BME280;39010;48.088;7.954;2022-11-15T11:51:23;97901.81;;;11.47;100.00
53116;BME280;39010;48.088;7.954;2022-11-15T11:54:03;97904.47;;;11.61;100.00
53116;BME280;39010;48.088;7.954;2022-11-15T11:56:33;97900.78;;;11.55;100.00
53116;BME280;39010;48.088;7.954;2022-11-15T11:59:36;97904.91;;;11.64;100.00
53116;BME280;39010;48.088;7.954;2022-11-15T12:02:28;97886.06;;;11.71;100.00
53116;BME280;39010;48.088;7.954;2022-11-15T12:05:05;97879.44;;;11.81;100.00
53116;BME280;39010;48.088;7.954;2022-11-15T12:07:34;97869.72;;;11.93;100.00
53116;BME280;39010;48.088;7.954;2022-11-15T12:10:22;97866.41;;;11.91;100.00
53116;BME280;39010;48.088;7.954;2022-11-15T12:15:39;97864.13;;;12.01;100.00
53116;BME280;39010;48.088;7.954;2022-11-15T12:18:12;97871.78;;;12.04;100.00
53116;BME280;39010;48.088;7.954;2022-11-15T12:20:48;97879.00;;;11.97;100.00
53116;BME280;39010;48.088;7.954;2022-11-15T12:23:28;97861.03;;;11.91;100.00
53116;BME280;39010;48.088;7.954;2022-11-15T12:26:01;97858.34;;;12.04;100.00
53116;BME280;39010;48.088;7.954;2022-11-15T12:28:46;97843.66;;;11.93;100.00
53116;BME280;39010;48.088;7.954;2022-11-15T12:31:45;97837.25;;;11.88;100.00
53116;BME280;39010;48.088;7.954;2022-11-15T12:36:48;97833.94;;;11.92;100.00
53116;BME280;39010;48.088;7.954;2022-11-15T12:39:16;97815.91;;;12.06;100.00
53116;BME280;39010;48.088;7.954;2022-11-15T12:47:03;97806.44;;;11.90;100.00
53116;BME280;39010;48.088;7.954;2022-11-15T13:02:23;97795.72;;;11.57;100.00
53116;BME280;39010;48.088;7.954;2022-11-15T13:04:53;97786.00;;;11.56;100.00
53116;BME280;39010;48.088;7.954;2022-11-15T13:17:48;97772.97;;;11.66;100.00
53116;BME280;39010;48.088;7.954;2022-11-15T13:20:29;97769.84;;;11.69;100.00
53116;BME280;39010;48.088;7.954;2022-11-15T13:23:12;97763.25;;;11.65;100.00
53116;BME280;39010;48.088;7.954;2022-11-15T13:26:03;97756.19;;;11.77;100.00
53116;BME280;39010;48.088;7.954;2022-11-15T13:28:48;97754.75;;;11.75;100.00
53116;BME280;39010;48.088;7.954;2022-11-15T13:31:30;97752.25;;;11.73;100.00
53116;BME280;39010;48.088;7.954;2022-11-15T13:34:25;97744.41;;;11.72;100.00
53116;BME280;39010;48.088;7.954;2022-11-15T13:37:34;97745.03;;;11.67;100.00
53116;BME280;39010;48.088;7.954;2022-11-15T13:40:34;97736.16;;;11.60;100.00
53116;BME280;39010;48.088;7.954;2022-11-15T13:49:09;97720.47;;;11.57;100.00
53116;BME280;39010;48.088;7.954;2022-11-15T13:51:47;97703.09;;;11.53;100.00
53116;BME280;39010;48.088;7.954;2022-11-15T13:56:56;97695.47;;;11.49;100.00
53116;BME280;39010;48.088;7.954;2022-11-15T13:59:27;97690.97;;;11.43;100.00
53116;BME280;39010;48.088;7.954;2022-11-15T14:01:57;97691.63;;;11.18;100.00
53116;BME280;39010;48.088;7.954;2022-11-15T14:04:26;97688.94;;;11.18;100.00
53116;BME280;39010;48.088;7.954;2022-11-15T14:06:57;97688.72;;;11.20;100.00
53116;BME280;39010;48.088;7.954;2022-11-15T14:11:57;97673.03;;;11.24;100.00
53116;BME280;39010;48.088;7.954;2022-11-15T14:14:25;97670.13;;;11.18;100.00
53116;BME280;39010;48.088;7.954;2022-11-15T14:17:00;97676.97;;;11.14;100.00
53116;BME280;39010;48.088;7.954;2022-11-15T14:19:37;97663.69;;;11.26;100.00
53116;BME280;39010;48.088;7.954;2022-11-15T14:24:36;97660.63;;;11.23;100.00
53116;BME280;39010;48.088;7.954;2022-11-15T14:27:18;97657.94;;;11.23;100.00
53116;BME280;39010;48.088;7.954;2022-11-15T14:29:44;97653.22;;;11.11;100.00
53116;BME280;39010;48.088;7.954;2022-11-15T14:32:17;97642.03;;;11.14;100.00
53116;BME280;39010;48.088;7.954;2022-11-15T14:34:45;97649.69;;;11.11;100.00
53116;BME280;39010;48.088;7.954;2022-11-15T14:39:50;97632.94;;;11.15;100.00
53116;BME280;39010;48.088;7.954;2022-11-15T14:42:18;97625.94;;;11.14;100.00
53116;BME280;39010;48.088;7.954;2022-11-15T14:44:45;97627.78;;;11.20;100.00
53116;BME280;39010;48.088;7.954;2022-11-15T14:47:12;97622.41;;;11.20;100.00
53116;BME280;39010;48.088;7.954;2022-11-15T14:49:38;97616.41;;;11.18;100.00
53116;BME280;39010;48.088;7.954;2022-11-15T14:52:24;97621.97;;;11.24;100.00
53116;BME280;39010;48.088;7.954;2022-11-15T14:54:57;97617.84;;;11.28;100.00
53116;BME280;39010;48.088;7.954;2022-11-15T14:57:25;97606.28;;;11.20;100.00
53116;BME280;39010;48.088;7.954;2022-11-15T14:59:51;97617.44;;;11.17;100.00
53116;BME280;39010;48.088;7.954;2022-11-15T15:02:22;97610.38;;;11.23;100.00
53116;BME280;39010;48.088;7.954;2022-11-15T15:04:49;97607.13;;;11.14;100.00
53116;BME280;39010;48.088;7.954;2022-11-15T15:07:19;97599.50;;;11.11;100.00
53116;BME280;39010;48.088;7.954;2022-11-15T15:09:46;97594.13;;;11.11;100.00
53116;BME280;39010;48.088;7.954;2022-11-15T15:12:17;97585.25;;;11.04;100.00
53116;BME280;39010;48.088;7.954;2022-11-15T15:14:45;97590.19;;;11.07;100.00
53116;BME280;39010;48.088;7.954;2022-11-15T15:17:13;97586.91;;;11.05;100.00
53116;BME280;39010;48.088;7.954;2022-11-15T15:19:40;97580.47;;;11.13;100.00
53116;BME280;39010;48.088;7.954;2022-11-15T15:22:15;97583.00;;;11.01;100.00
53116;BME280;39010;48.088;7.954;2022-11-15T15:24:44;97581.72;;;11.03;100.00
53116;BME280;39010;48.088;7.954;2022-11-15T15:27:13;97567.72;;;10.95;100.00
53116;BME280;39010;48.088;7.954;2022-11-15T15:29:39;97565.41;;;10.98;100.00
53116;BME280;39010;48.088;7.954;2022-11-15T15:32:06;97560.69;;;10.94;100.00
53116;BME280;39010;48.088;7.954;2022-11-15T15:34:33;97560.69;;;10.87;100.00
53116;BME280;39010;48.088;7.954;2022-11-15T15:39:51;97554.53;;;10.86;100.00
53116;BME280;39010;48.088;7.954;2022-11-15T15:42:18;97546.47;;;10.86;100.00
53116;BME280;39010;48.088;7.954;2022-11-15T15:44:46;97541.72;;;10.82;100.00
53116;BME280;39010;48.088;7.954;2022-11-15T15:47:16;97550.19;;;10.79;100.00
53116;BME280;39010;48.088;7.954;2022-11-15T15:49:43;97540.50;;;10.71;100.00
53116;BME280;39010;48.088;7.954;2022-11-15T15:52:10;97538.44;;;10.66;100.00
53116;BME280;39010;48.088;7.954;2022-11-15T15:54:38;97533.28;;;10.78;100.00
53116;BME280;39010;48.088;7.954;2022-11-15T15:57:06;97523.38;;;10.72;100.00
53116;BME280;39010;48.088;7.954;2022-11-15T15:59:32;97530.78;;;10.76;100.00
53116;BME280;39010;48.088;7.954;2022-11-15T16:01:59;97527.06;;;10.78;100.00
53116;BME280;39010;48.088;7.954;2022-11-15T16:04:27;97526.06;;;10.72;100.00
53116;BME280;39010;48.088;7.954;2022-11-15T16:06:58;97522.38;;;10.59;100.00
53116;BME280;39010;48.088;7.954;2022-11-15T16:09:26;97518.47;;;10.55;100.00
53116;BME280;39010;48.088;7.954;2022-11-15T16:12:11;97521.38;;;10.54;100.00
53116;BME280;39010;48.088;7.954;2022-11-15T16:14:37;97519.06;;;10.57;100.00
53116;BME280;39010;48.088;7.954;2022-11-15T16:17:04;97526.09;;;10.45;100.00
53116;BME280;39010;48.088;7.954;2022-11-15T16:19:30;97533.34;;;10.58;100.00
53116;BME280;39010;48.088;7.954;2022-11-15T16:21:57;97522.16;;;10.61;100.00
53116;BME280;39010;48.088;7.954;2022-11-15T16:24:24;97518.69;;;10.54;100.00
53116;BME280;39010;48.088;7.954;2022-11-15T16:26:50;97520.53;;;10.60;100.00
53116;BME280;39010;48.088;7.954;2022-11-15T16:29:17;97518.22;;;10.64;100.00
53116;BME280;39010;48.088;7.954;2022-11-15T16:31:44;97509.75;;;10.67;100.00